sensor_id;sensor_type;location;lat;lon;timestamp;temperature;humidity
52301;DHT22;38528;53.214;6.562;2022-09-09T00:04:27;16.00;99.90
52301;DHT22;38528;53.214;6.562;2022-09-09T00:13:31;15.90;99.90
52301;DHT22;38528;53.214;6.562;2022-09-09T00:16:19;15.90;99.90
52301;DHT22;38528;53.214;6.562;2022-09-09T00:18:51;15.80;99.90
52301;DHT22;38528;53.214;6.562;2022-09-09T00:21:18;15.80;99.90
52301;DHT22;38528;53.214;6.562;2022-09-09T00:23:54;15.80;99.90
52301;DHT22;38528;53.214;6.562;2022-09-09T00:26:42;15.90;99.90
52301;DHT22;38528;53.214;6.562;2022-09-09T00:31:46;15.70;99.90
52301;DHT22;38528;53.214;6.562;2022-09-09T00:34:18;15.80;99.90
52301;DHT22;38528;53.214;6.562;2022-09-09T00:36:45;15.70;99.90
52301;DHT22;38528;53.214;6.562;2022-09-09T00:39:36;15.70;99.90
52301;DHT22;38528;53.214;6.562;2022-09-09T00:44:33;15.60;99.90
52301;DHT22;38528;53.214;6.562;2022-09-09T00:47:29;15.60;99.90
52301;DHT22;38528;53.214;6.562;2022-09-09T00:55:40;15.60;99.90
52301;DHT22;38528;53.214;6.562;2022-09-09T00:58:08;15.50;99.90
52301;DHT22;38528;53.214;6.562;2022-09-09T01:03:22;15.60;99.90
52301;DHT22;38528;53.214;6.562;2022-09-09T01:13:47;15.50;99.90
52301;DHT22;38528;53.214;6.562;2022-09-09T01:16:15;15.50;99.90
52301;DHT22;38528;53.214;6.562;2022-09-09T01:18:48;15.50;99.90
52301;DHT22;38528;53.214;6.562;2022-09-09T01:24:08;15.50;99.90
52301;DHT22;38528;53.214;6.562;2022-09-09T01:26:44;15.50;99.90
52301;DHT22;38528;53.214;6.562;2022-09-09T01:29:13;15.40;99.90
52301;DHT22;38528;53.214;6.562;2022-09-09T01:31:59;15.40;99.90
52301;DHT22;38528;53.214;6.562;2022-09-09T01:34:28;15.40;99.90
52301;DHT22;38528;53.214;6.562;2022-09-09T01:37:10;15.60;99.90
52301;DHT22;38528;53.214;6.562;2022-09-09T01:39:38;15.40;99.90
52301;DHT22;38528;53.214;6.562;2022-09-09T01:42:08;15.60;99.90
52301;DHT22;38528;53.214;6.562;2022-09-09T01:44:35;15.30;99.90
52301;DHT22;38528;53.214;6.562;2022-09-09T01:47:02;15.30;99.90
52301;DHT22;38528;53.214;6.562;2022-09-09T01:49:28;15.40;99.90
52301;DHT22;38528;53.214;6.562;2022-09-09T01:51:55;15.30;99.90
52301;DHT22;38528;53.214;6.562;2022-09-09T01:54:23;15.30;99.90
52301;DHT22;38528;53.214;6.562;2022-09-09T01:57:21;15.30;99.90
52301;DHT22;38528;53.214;6.562;2022-09-09T02:00:07;15.30;99.90
52301;DHT22;38528;53.214;6.562;2022-09-09T02:07:58;15.30;99.90
52301;DHT22;38528;53.214;6.562;2022-09-09T02:10:30;15.30;99.90
52301;DHT22;38528;53.214;6.562;2022-09-09T02:13:23;15.30;99.90
52301;DHT22;38528;53.214;6.562;2022-09-09T02:15:53;15.30;99.90
52301;DHT22;38528;53.214;6.562;2022-09-09T02:18:28;15.30;99.90
52301;DHT22;38528;53.214;6.562;2022-09-09T02:20:56;15.30;99.90
52301;DHT22;38528;53.214;6.562;2022-09-09T02:23:24;15.30;99.90
52301;DHT22;38528;53.214;6.562;2022-09-09T02:25:51;15.30;99.90
52301;DHT22;38528;53.214;6.562;2022-09-09T02:28:20;15.70;99.90
52301;DHT22;38528;53.214;6.562;2022-09-09T02:30:50;15.20;99.90
52301;DHT22;38528;53.214;6.562;2022-09-09T02:33:22;15.70;99.90
52301;DHT22;38528;53.214;6.562;2022-09-09T02:35:51;15.10;99.90
52301;DHT22;38528;53.214;6.562;2022-09-09T02:38:19;15.20;99.90
52301;DHT22;38528;53.214;6.562;2022-09-09T02:40:46;15.60;99.90
52301;DHT22;38528;53.214;6.562;2022-09-09T02:43:15;15.20;99.90
52301;DHT22;38528;53.214;6.562;2022-09-09T02:45:53;15.20;99.90
52301;DHT22;38528;53.214;6.562;2022-09-09T02:51:40;15.20;99.90
52301;DHT22;38528;53.214;6.562;2022-09-09T02:57:01;15.10;99.90
52301;DHT22;38528;53.214;6.562;2022-09-09T02:59:27;15.10;99.90
52301;DHT22;38528;53.214;6.562;2022-09-09T03:01:53;15.80;99.90
52301;DHT22;38528;53.214;6.562;2022-09-09T03:04:19;15.10;99.90
52301;DHT22;38528;53.214;6.562;2022-09-09T03:06:44;15.80;99.90
52301;DHT22;38528;53.214;6.562;2022-09-09T03:09:10;15.10;99.90
52301;DHT22;38528;53.214;6.562;2022-09-09T03:11:36;15.20;99.90
52301;DHT22;38528;53.214;6.562;2022-09-09T03:14:02;15.20;99.90
52301;DHT22;38528;53.214;6.562;2022-09-09T03:16:27;15.10;99.90
52301;DHT22;38528;53.214;6.562;2022-09-09T03:18:53;15.50;99.90
52301;DHT22;38528;53.214;6.562;2022-09-09T03:21:19;15.10;99.90
52301;DHT22;38528;53.214;6.562;2022-09-09T03:23:44;15.20;99.90
52301;DHT22;38528;53.214;6.562;2022-09-09T03:26:10;15.20;99.90
52301;DHT22;38528;53.214;6.562;2022-09-09T03:28:36;15.10;99.90
52301;DHT22;38528;53.214;6.562;2022-09-09T03:31:03;15.20;99.90
52301;DHT22;38528;53.214;6.562;2022-09-09T03:33:29;15.20;99.90
52301;DHT22;38528;53.214;6.562;2022-09-09T03:35:55;15.20;99.90
52301;DHT22;38528;53.214;6.562;2022-09-09T03:38:24;15.40;99.90
52301;DHT22;38528;53.214;6.562;2022-09-09T03:40:51;15.10;99.90
52301;DHT22;38528;53.214;6.562;2022-09-09T03:43:24;15.20;99.90
52301;DHT22;38528;53.214;6.562;2022-09-09T03:45:50;15.10;99.90
52301;DHT22;38528;53.214;6.562;2022-09-09T03:48:17;15.20;99.90
52301;DHT22;38528;53.214;6.562;2022-09-09T03:50:51;15.20;99.90
52301;DHT22;38528;53.214;6.562;2022-09-09T03:53:18;15.40;99.90
52301;DHT22;38528;53.214;6.562;2022-09-09T03:55:49;15.20;99.90
52301;DHT22;38528;53.214;6.562;2022-09-09T03:58:16;15.70;99.90
52301;DHT22;38528;53.214;6.562;2022-09-09T04:00:53;15.20;99.90
52301;DHT22;38528;53.214;6.562;2022-09-09T04:03:19;15.50;99.90
52301;DHT22;38528;53.214;6.562;2022-09-09T04:05:44;15.30;99.90
52301;DHT22;38528;53.214;6.562;2022-09-09T04:08:10;15.30;99.90
52301;DHT22;38528;53.214;6.562;2022-09-09T04:10:36;15.30;99.90
52301;DHT22;38528;53.214;6.562;2022-09-09T04:13:03;15.50;99.90
52301;DHT22;38528;53.214;6.562;2022-09-09T04:15:30;15.80;99.90
52301;DHT22;38528;53.214;6.562;2022-09-09T04:17:56;15.40;99.90
52301;DHT22;38528;53.214;6.562;2022-09-09T04:20:22;15.60;99.90
52301;DHT22;38528;53.214;6.562;2022-09-09T04:22:49;15.50;99.90
52301;DHT22;38528;53.214;6.562;2022-09-09T04:25:14;16.00;99.90
52301;DHT22;38528;53.214;6.562;2022-09-09T04:27:40;15.50;99.90
52301;DHT22;38528;53.214;6.562;2022-09-09T04:30:06;15.60;99.90
52301;DHT22;38528;53.214;6.562;2022-09-09T04:32:35;15.50;99.90
52301;DHT22;38528;53.214;6.562;2022-09-09T04:35:02;15.90;99.90
52301;DHT22;38528;53.214;6.562;2022-09-09T04:37:28;15.50;99.90
52301;DHT22;38528;53.214;6.562;2022-09-09T04:39:54;15.50;99.90
52301;DHT22;38528;53.214;6.562;2022-09-09T04:42:19;15.50;99.90
52301;DHT22;38528;53.214;6.562;2022-09-09T04:44:45;15.50;99.90
52301;DHT22;38528;53.214;6.562;2022-09-09T04:47:11;15.50;99.90
52301;DHT22;38528;53.214;6.562;2022-09-09T04:49:37;15.50;99.90
52301;DHT22;38528;53.214;6.562;2022-09-09T04:52:04;15.50;99.90
52301;DHT22;38528;53.214;6.562;2022-09-09T04:54:29;15.40;99.90
52301;DHT22;38528;53.214;6.562;2022-09-09T04:56:55;15.60;99.90
52301;DHT22;38528;53.214;6.562;2022-09-09T04:59:21;15.50;99.90
52301;DHT22;38528;53.214;6.562;2022-09-09T05:01:48;15.50;99.90
52301;DHT22;38528;53.214;6.562;2022-09-09T05:04:15;15.50;99.90
52301;DHT22;38528;53.214;6.562;2022-09-09T05:06:41;16.10;99.90
52301;DHT22;38528;53.214;6.562;2022-09-09T05:09:08;15.50;99.90
52301;DHT22;38528;53.214;6.562;2022-09-09T05:11:34;15.50;99.90
52301;DHT22;38528;53.214;6.562;2022-09-09T05:14:02;16.30;99.90
52301;DHT22;38528;53.214;6.562;2022-09-09T05:16:28;15.50;99.90
52301;DHT22;38528;53.214;6.562;2022-09-09T05:18:55;15.50;99.90
52301;DHT22;38528;53.214;6.562;2022-09-09T05:21:22;15.40;99.90
52301;DHT22;38528;53.214;6.562;2022-09-09T05:23:49;15.60;99.90
52301;DHT22;38528;53.214;6.562;2022-09-09T05:26:18;15.50;99.90
52301;DHT22;38528;53.214;6.562;2022-09-09T05:28:44;15.50;99.90
52301;DHT22;38528;53.214;6.562;2022-09-09T05:31:11;15.40;99.90
52301;DHT22;38528;53.214;6.562;2022-09-09T05:33:39;15.40;99.90
52301;DHT22;38528;53.214;6.562;2022-09-09T05:36:10;15.50;99.90
52301;DHT22;38528;53.214;6.562;2022-09-09T05:38:39;15.40;99.90
52301;DHT22;38528;53.214;6.562;2022-09-09T05:41:06;15.60;99.90
52301;DHT22;38528;53.214;6.562;2022-09-09T05:43:33;15.40;99.90
52301;DHT22;38528;53.214;6.562;2022-09-09T05:46:00;15.40;99.90
52301;DHT22;38528;53.214;6.562;2022-09-09T05:48:31;15.60;99.90
52301;DHT22;38528;53.214;6.562;2022-09-09T05:50:58;15.40;99.90
52301;DHT22;38528;53.214;6.562;2022-09-09T05:53:25;15.40;99.90
52301;DHT22;38528;53.214;6.562;2022-09-09T05:55:57;15.40;99.90
52301;DHT22;38528;53.214;6.562;2022-09-09T05:58:23;15.30;99.90
52301;DHT22;38528;53.214;6.562;2022-09-09T06:00:49;15.30;99.90
52301;DHT22;38528;53.214;6.562;2022-09-09T06:03:15;15.60;99.90
52301;DHT22;38528;53.214;6.562;2022-09-09T06:05:42;15.60;99.90
52301;DHT22;38528;53.214;6.562;2022-09-09T06:08:08;15.30;99.90
52301;DHT22;38528;53.214;6.562;2022-09-09T06:10:33;16.00;99.90
52301;DHT22;38528;53.214;6.562;2022-09-09T06:12:59;15.40;99.90
52301;DHT22;38528;53.214;6.562;2022-09-09T06:15:25;15.50;99.90
52301;DHT22;38528;53.214;6.562;2022-09-09T06:17:55;15.50;99.90
52301;DHT22;38528;53.214;6.562;2022-09-09T06:20:21;15.50;99.90
52301;DHT22;38528;53.214;6.562;2022-09-09T06:22:47;15.50;99.90
52301;DHT22;38528;53.214;6.562;2022-09-09T06:25:14;15.80;99.90
52301;DHT22;38528;53.214;6.562;2022-09-09T06:27:39;15.60;99.90
52301;DHT22;38528;53.214;6.562;2022-09-09T06:30:06;15.60;99.90
52301;DHT22;38528;53.214;6.562;2022-09-09T06:32:33;15.60;99.90
52301;DHT22;38528;53.214;6.562;2022-09-09T06:35:00;15.70;99.90
52301;DHT22;38528;53.214;6.562;2022-09-09T06:37:26;15.90;99.90
52301;DHT22;38528;53.214;6.562;2022-09-09T06:39:52;15.50;99.90
52301;DHT22;38528;53.214;6.562;2022-09-09T06:42:20;16.40;99.90
52301;DHT22;38528;53.214;6.562;2022-09-09T06:44:45;15.60;99.90
52301;DHT22;38528;53.214;6.562;2022-09-09T06:47:11;15.70;99.90
52301;DHT22;38528;53.214;6.562;2022-09-09T06:49:36;15.70;99.90
52301;DHT22;38528;53.214;6.562;2022-09-09T06:52:02;15.90;99.90
52301;DHT22;38528;53.214;6.562;2022-09-09T06:54:28;15.80;99.90
52301;DHT22;38528;53.214;6.562;2022-09-09T06:56:53;15.80;99.90
52301;DHT22;38528;53.214;6.562;2022-09-09T06:59:19;15.80;99.90
52301;DHT22;38528;53.214;6.562;2022-09-09T07:01:45;15.80;99.90
52301;DHT22;38528;53.214;6.562;2022-09-09T07:04:12;15.80;99.90
52301;DHT22;38528;53.214;6.562;2022-09-09T07:06:40;15.90;99.90
52301;DHT22;38528;53.214;6.562;2022-09-09T07:09:09;16.00;99.90
52301;DHT22;38528;53.214;6.562;2022-09-09T07:11:43;15.80;99.90
52301;DHT22;38528;53.214;6.562;2022-09-09T07:14:10;15.80;99.90
52301;DHT22;38528;53.214;6.562;2022-09-09T07:16:40;15.80;99.90
52301;DHT22;38528;53.214;6.562;2022-09-09T07:19:06;16.00;99.90
52301;DHT22;38528;53.214;6.562;2022-09-09T07:21:33;15.80;99.90
52301;DHT22;38528;53.214;6.562;2022-09-09T07:23:59;15.90;99.90
52301;DHT22;38528;53.214;6.562;2022-09-09T07:26:31;15.90;99.90
52301;DHT22;38528;53.214;6.562;2022-09-09T07:28:57;15.90;99.90
52301;DHT22;38528;53.214;6.562;2022-09-09T07:31:25;15.90;99.90
52301;DHT22;38528;53.214;6.562;2022-09-09T07:33:52;15.90;99.90
52301;DHT22;38528;53.214;6.562;2022-09-09T07:36:19;16.00;99.90
52301;DHT22;38528;53.214;6.562;2022-09-09T07:38:52;16.10;99.90
52301;DHT22;38528;53.214;6.562;2022-09-09T07:41:33;16.10;99.90
52301;DHT22;38528;53.214;6.562;2022-09-09T07:44:03;16.20;99.90
52301;DHT22;38528;53.214;6.562;2022-09-09T07:46:29;16.20;99.90
52301;DHT22;38528;53.214;6.562;2022-09-09T07:48:56;16.30;99.90
52301;DHT22;38528;53.214;6.562;2022-09-09T07:51:27;16.40;99.90
52301;DHT22;38528;53.214;6.562;2022-09-09T07:53:58;16.40;99.90
52301;DHT22;38528;53.214;6.562;2022-09-09T07:56:26;16.80;99.90
52301;DHT22;38528;53.214;6.562;2022-09-09T07:58:53;16.60;99.90
52301;DHT22;38528;53.214;6.562;2022-09-09T08:01:21;16.60;99.90
52301;DHT22;38528;53.214;6.562;2022-09-09T08:03:56;17.00;99.90
52301;DHT22;38528;53.214;6.562;2022-09-09T08:06:26;16.80;99.90
52301;DHT22;38528;53.214;6.562;2022-09-09T08:08:52;16.90;99.90
52301;DHT22;38528;53.214;6.562;2022-09-09T08:11:24;16.90;99.90
52301;DHT22;38528;53.214;6.562;2022-09-09T08:13:50;17.00;99.90
52301;DHT22;38528;53.214;6.562;2022-09-09T08:16:26;17.10;99.90
52301;DHT22;38528;53.214;6.562;2022-09-09T08:18:52;17.20;99.90
52301;DHT22;38528;53.214;6.562;2022-09-09T08:21:24;17.30;99.90
52301;DHT22;38528;53.214;6.562;2022-09-09T08:23:52;17.30;99.90
52301;DHT22;38528;53.214;6.562;2022-09-09T08:26:29;17.50;99.90
52301;DHT22;38528;53.214;6.562;2022-09-09T08:28:57;17.60;99.90
52301;DHT22;38528;53.214;6.562;2022-09-09T08:31:26;17.70;99.90
52301;DHT22;38528;53.214;6.562;2022-09-09T08:33:54;17.80;99.90
52301;DHT22;38528;53.214;6.562;2022-09-09T08:36:22;18.00;99.90
52301;DHT22;38528;53.214;6.562;2022-09-09T08:38:50;18.20;99.90
52301;DHT22;38528;53.214;6.562;2022-09-09T08:52:49;18.60;99.90
52301;DHT22;38528;53.214;6.562;2022-09-09T08:57:53;18.50;99.90
52301;DHT22;38528;53.214;6.562;2022-09-09T09:00:20;18.50;99.90
52301;DHT22;38528;53.214;6.562;2022-09-09T09:03:58;18.60;99.90
52301;DHT22;38528;53.214;6.562;2022-09-09T09:11:16;18.40;99.90
52301;DHT22;38528;53.214;6.562;2022-09-09T09:13:54;18.40;99.90
52301;DHT22;38528;53.214;6.562;2022-09-09T09:16:29;18.40;99.90
52301;DHT22;38528;53.214;6.562;2022-09-09T09:18:58;18.50;99.90
52301;DHT22;38528;53.214;6.562;2022-09-09T09:21:43;19.00;99.90
52301;DHT22;38528;53.214;6.562;2022-09-09T09:27:07;18.60;99.90
52301;DHT22;38528;53.214;6.562;2022-09-09T09:29:38;18.70;99.90
52301;DHT22;38528;53.214;6.562;2022-09-09T09:32:04;18.90;99.90
52301;DHT22;38528;53.214;6.562;2022-09-09T09:34:32;19.00;99.90
52301;DHT22;38528;53.214;6.562;2022-09-09T09:37:00;19.20;99.90
52301;DHT22;38528;53.214;6.562;2022-09-09T09:39:33;19.50;99.90
52301;DHT22;38528;53.214;6.562;2022-09-09T09:42:16;19.60;99.90
52301;DHT22;38528;53.214;6.562;2022-09-09T09:44:43;19.70;99.90
52301;DHT22;38528;53.214;6.562;2022-09-09T09:49:39;19.60;99.90
52301;DHT22;38528;53.214;6.562;2022-09-09T09:52:06;19.40;99.90
52301;DHT22;38528;53.214;6.562;2022-09-09T09:54:37;19.40;99.90
52301;DHT22;38528;53.214;6.562;2022-09-09T09:57:14;19.50;99.90
52301;DHT22;38528;53.214;6.562;2022-09-09T09:59:41;19.70;99.90
52301;DHT22;38528;53.214;6.562;2022-09-09T10:02:23;20.00;99.90
52301;DHT22;38528;53.214;6.562;2022-09-09T10:07:26;19.80;99.90
52301;DHT22;38528;53.214;6.562;2022-09-09T10:09:56;19.70;99.90
52301;DHT22;38528;53.214;6.562;2022-09-09T10:28:56;19.70;99.90
52301;DHT22;38528;53.214;6.562;2022-09-09T10:37:14;19.50;99.90
52301;DHT22;38528;53.214;6.562;2022-09-09T10:39:44;19.40;99.90
52301;DHT22;38528;53.214;6.562;2022-09-09T10:42:12;19.40;99.90
52301;DHT22;38528;53.214;6.562;2022-09-09T10:53:12;19.90;99.90
52301;DHT22;38528;53.214;6.562;2022-09-09T10:55:48;19.80;99.90
52301;DHT22;38528;53.214;6.562;2022-09-09T10:58:20;19.90;99.90
52301;DHT22;38528;53.214;6.562;2022-09-09T11:00:52;20.10;99.90
52301;DHT22;38528;53.214;6.562;2022-09-09T11:03:22;20.40;99.90
52301;DHT22;38528;53.214;6.562;2022-09-09T11:05:53;20.90;99.90
52301;DHT22;38528;53.214;6.562;2022-09-09T11:08:25;21.40;99.90
52301;DHT22;38528;53.214;6.562;2022-09-09T11:11:03;21.40;99.90
52301;DHT22;38528;53.214;6.562;2022-09-09T11:13:38;21.40;99.90
52301;DHT22;38528;53.214;6.562;2022-09-09T11:16:42;21.50;99.90
52301;DHT22;38528;53.214;6.562;2022-09-09T11:19:30;21.60;99.90
52301;DHT22;38528;53.214;6.562;2022-09-09T11:22:05;21.50;99.90
52301;DHT22;38528;53.214;6.562;2022-09-09T11:24:43;21.70;99.90
52301;DHT22;38528;53.214;6.562;2022-09-09T11:32:33;22.50;99.90
52301;DHT22;38528;53.214;6.562;2022-09-09T11:38:24;22.90;99.90
52301;DHT22;38528;53.214;6.562;2022-09-09T11:41:02;23.30;99.90
52301;DHT22;38528;53.214;6.562;2022-09-09T11:43:52;23.50;99.90
52301;DHT22;38528;53.214;6.562;2022-09-09T11:46:20;23.50;99.90
52301;DHT22;38528;53.214;6.562;2022-09-09T11:49:21;23.20;99.90
52301;DHT22;38528;53.214;6.562;2022-09-09T11:51:50;23.10;99.90
52301;DHT22;38528;53.214;6.562;2022-09-09T11:54:32;22.90;99.90
52301;DHT22;38528;53.214;6.562;2022-09-09T11:56:58;22.70;99.90
52301;DHT22;38528;53.214;6.562;2022-09-09T11:59:29;22.60;99.90
52301;DHT22;38528;53.214;6.562;2022-09-09T12:01:59;22.60;99.90
52301;DHT22;38528;53.214;6.562;2022-09-09T12:04:30;22.70;99.90
52301;DHT22;38528;53.214;6.562;2022-09-09T12:09:52;22.80;99.90
52301;DHT22;38528;53.214;6.562;2022-09-09T12:12:28;22.60;99.90
52301;DHT22;38528;53.214;6.562;2022-09-09T12:17:30;23.20;99.90
52301;DHT22;38528;53.214;6.562;2022-09-09T12:20:02;23.30;99.90
52301;DHT22;38528;53.214;6.562;2022-09-09T12:25:36;23.20;99.90
52301;DHT22;38528;53.214;6.562;2022-09-09T12:28:27;22.50;99.90
52301;DHT22;38528;53.214;6.562;2022-09-09T12:31:10;22.70;99.90
52301;DHT22;38528;53.214;6.562;2022-09-09T12:33:38;22.30;99.90
52301;DHT22;38528;53.214;6.562;2022-09-09T12:36:12;22.10;99.90
52301;DHT22;38528;53.214;6.562;2022-09-09T12:38:41;22.00;99.90
52301;DHT22;38528;53.214;6.562;2022-09-09T12:41:26;21.90;99.90
52301;DHT22;38528;53.214;6.562;2022-09-09T12:44:06;21.70;99.90
52301;DHT22;38528;53.214;6.562;2022-09-09T12:46:38;21.70;99.90
52301;DHT22;38528;53.214;6.562;2022-09-09T12:49:05;21.80;99.90
52301;DHT22;38528;53.214;6.562;2022-09-09T12:51:32;21.80;99.90
52301;DHT22;38528;53.214;6.562;2022-09-09T12:53:59;21.80;99.90
52301;DHT22;38528;53.214;6.562;2022-09-09T12:56:27;21.70;99.90
52301;DHT22;38528;53.214;6.562;2022-09-09T12:58:56;21.70;99.90
52301;DHT22;38528;53.214;6.562;2022-09-09T13:01:31;21.60;99.90
52301;DHT22;38528;53.214;6.562;2022-09-09T13:03:57;21.60;99.90
52301;DHT22;38528;53.214;6.562;2022-09-09T13:06:28;21.80;99.90
52301;DHT22;38528;53.214;6.562;2022-09-09T13:08:56;22.00;99.90
52301;DHT22;38528;53.214;6.562;2022-09-09T13:11:26;22.20;99.90
52301;DHT22;38528;53.214;6.562;2022-09-09T13:13:55;22.20;99.90
52301;DHT22;38528;53.214;6.562;2022-09-09T13:18:47;21.90;99.90
52301;DHT22;38528;53.214;6.562;2022-09-09T13:21:16;21.70;99.90
52301;DHT22;38528;53.214;6.562;2022-09-09T13:23:42;21.60;99.90
52301;DHT22;38528;53.214;6.562;2022-09-09T13:26:26;21.60;99.90
52301;DHT22;38528;53.214;6.562;2022-09-09T13:28:53;21.70;99.90
52301;DHT22;38528;53.214;6.562;2022-09-09T13:31:28;21.60;99.90
52301;DHT22;38528;53.214;6.562;2022-09-09T13:33:54;21.60;99.90
52301;DHT22;38528;53.214;6.562;2022-09-09T13:36:31;21.50;99.90
52301;DHT22;38528;53.214;6.562;2022-09-09T13:38:59;21.50;99.90
52301;DHT22;38528;53.214;6.562;2022-09-09T13:41:42;21.50;99.90
52301;DHT22;38528;53.214;6.562;2022-09-09T13:44:24;21.40;99.90
52301;DHT22;38528;53.214;6.562;2022-09-09T13:47:20;21.40;99.90
52301;DHT22;38528;53.214;6.562;2022-09-09T13:49:46;21.30;99.90
52301;DHT22;38528;53.214;6.562;2022-09-09T13:52:14;21.20;99.90
52301;DHT22;38528;53.214;6.562;2022-09-09T13:54:41;21.20;99.90
52301;DHT22;38528;53.214;6.562;2022-09-09T13:57:18;21.10;99.90
52301;DHT22;38528;53.214;6.562;2022-09-09T13:59:45;21.20;99.90
52301;DHT22;38528;53.214;6.562;2022-09-09T14:02:11;21.30;99.90
52301;DHT22;38528;53.214;6.562;2022-09-09T14:04:37;21.40;99.90
52301;DHT22;38528;53.214;6.562;2022-09-09T14:07:03;21.50;99.90
52301;DHT22;38528;53.214;6.562;2022-09-09T14:09:29;21.60;99.90
52301;DHT22;38528;53.214;6.562;2022-09-09T14:11:54;21.70;99.90
52301;DHT22;38528;53.214;6.562;2022-09-09T14:14:20;21.90;99.90
52301;DHT22;38528;53.214;6.562;2022-09-09T14:16:46;21.90;99.90
52301;DHT22;38528;53.214;6.562;2022-09-09T14:19:12;21.80;99.90
52301;DHT22;38528;53.214;6.562;2022-09-09T14:21:40;21.70;99.90
52301;DHT22;38528;53.214;6.562;2022-09-09T14:24:06;21.60;99.90
52301;DHT22;38528;53.214;6.562;2022-09-09T14:26:32;21.50;99.90
52301;DHT22;38528;53.214;6.562;2022-09-09T14:29:03;21.60;99.90
52301;DHT22;38528;53.214;6.562;2022-09-09T14:31:32;21.70;99.90
52301;DHT22;38528;53.214;6.562;2022-09-09T14:33:58;21.60;99.90
52301;DHT22;38528;53.214;6.562;2022-09-09T14:36:26;21.60;99.90
52301;DHT22;38528;53.214;6.562;2022-09-09T14:38:52;21.50;99.90
52301;DHT22;38528;53.214;6.562;2022-09-09T14:41:19;21.40;99.90
52301;DHT22;38528;53.214;6.562;2022-09-09T14:43:45;21.30;99.90
52301;DHT22;38528;53.214;6.562;2022-09-09T14:46:14;21.30;99.90
52301;DHT22;38528;53.214;6.562;2022-09-09T14:48:40;21.20;99.90
52301;DHT22;38528;53.214;6.562;2022-09-09T14:51:16;21.10;99.90
52301;DHT22;38528;53.214;6.562;2022-09-09T14:53:43;21.00;99.90
52301;DHT22;38528;53.214;6.562;2022-09-09T14:56:12;20.80;99.90
52301;DHT22;38528;53.214;6.562;2022-09-09T14:58:38;20.60;99.90
52301;DHT22;38528;53.214;6.562;2022-09-09T15:01:05;20.60;99.90
52301;DHT22;38528;53.214;6.562;2022-09-09T15:03:31;20.50;99.90
52301;DHT22;38528;53.214;6.562;2022-09-09T15:05:57;20.40;99.90
52301;DHT22;38528;53.214;6.562;2022-09-09T15:08:24;20.50;99.90
52301;DHT22;38528;53.214;6.562;2022-09-09T15:10:50;20.50;99.90
52301;DHT22;38528;53.214;6.562;2022-09-09T15:13:16;20.40;99.90
52301;DHT22;38528;53.214;6.562;2022-09-09T15:15:44;20.40;99.90
52301;DHT22;38528;53.214;6.562;2022-09-09T15:18:09;20.50;99.90
52301;DHT22;38528;53.214;6.562;2022-09-09T15:20:35;20.50;99.90
52301;DHT22;38528;53.214;6.562;2022-09-09T15:23:03;20.50;99.90
52301;DHT22;38528;53.214;6.562;2022-09-09T15:25:28;20.70;99.90
52301;DHT22;38528;53.214;6.562;2022-09-09T15:27:54;20.60;99.90
52301;DHT22;38528;53.214;6.562;2022-09-09T15:30:21;20.60;99.90
52301;DHT22;38528;53.214;6.562;2022-09-09T15:32:47;20.60;99.90
52301;DHT22;38528;53.214;6.562;2022-09-09T15:35:12;20.50;99.90
52301;DHT22;38528;53.214;6.562;2022-09-09T15:37:38;20.50;99.90
52301;DHT22;38528;53.214;6.562;2022-09-09T15:40:04;20.50;99.90
52301;DHT22;38528;53.214;6.562;2022-09-09T15:42:30;20.50;99.90
52301;DHT22;38528;53.214;6.562;2022-09-09T15:44:55;20.40;99.90
52301;DHT22;38528;53.214;6.562;2022-09-09T15:47:21;20.50;99.90
52301;DHT22;38528;53.214;6.562;2022-09-09T15:49:47;20.50;99.90
52301;DHT22;38528;53.214;6.562;2022-09-09T15:52:12;20.50;99.90
52301;DHT22;38528;53.214;6.562;2022-09-09T15:54:38;20.60;99.90
52301;DHT22;38528;53.214;6.562;2022-09-09T15:57:06;20.40;99.90
52301;DHT22;38528;53.214;6.562;2022-09-09T15:59:33;20.40;99.90
52301;DHT22;38528;53.214;6.562;2022-09-09T16:02:00;20.40;99.90
52301;DHT22;38528;53.214;6.562;2022-09-09T16:04:26;20.30;99.90
52301;DHT22;38528;53.214;6.562;2022-09-09T16:06:55;20.30;99.90
52301;DHT22;38528;53.214;6.562;2022-09-09T16:09:23;20.90;99.90
52301;DHT22;38528;53.214;6.562;2022-09-09T16:11:48;20.20;99.90
52301;DHT22;38528;53.214;6.562;2022-09-09T16:14:14;20.10;99.90
52301;DHT22;38528;53.214;6.562;2022-09-09T16:16:41;20.50;99.90
52301;DHT22;38528;53.214;6.562;2022-09-09T16:19:09;20.00;99.90
52301;DHT22;38528;53.214;6.562;2022-09-09T16:21:38;20.00;99.90
52301;DHT22;38528;53.214;6.562;2022-09-09T16:24:05;20.00;99.90
52301;DHT22;38528;53.214;6.562;2022-09-09T16:26:34;20.00;99.90
52301;DHT22;38528;53.214;6.562;2022-09-09T16:29:00;19.90;99.90
52301;DHT22;38528;53.214;6.562;2022-09-09T16:31:27;19.90;99.90
52301;DHT22;38528;53.214;6.562;2022-09-09T16:33:54;19.90;99.90
52301;DHT22;38528;53.214;6.562;2022-09-09T16:36:23;19.90;99.90
52301;DHT22;38528;53.214;6.562;2022-09-09T16:38:55;20.00;99.90
52301;DHT22;38528;53.214;6.562;2022-09-09T16:41:23;20.30;99.90
52301;DHT22;38528;53.214;6.562;2022-09-09T16:43:53;20.00;99.90
52301;DHT22;38528;53.214;6.562;2022-09-09T16:46:20;20.00;99.90
52301;DHT22;38528;53.214;6.562;2022-09-09T16:48:47;19.90;99.90
52301;DHT22;38528;53.214;6.562;2022-09-09T16:51:33;19.90;99.90
52301;DHT22;38528;53.214;6.562;2022-09-09T16:54:02;19.80;99.90
52301;DHT22;38528;53.214;6.562;2022-09-09T16:56:30;19.80;99.90
52301;DHT22;38528;53.214;6.562;2022-09-09T16:59:01;19.70;99.90
52301;DHT22;38528;53.214;6.562;2022-09-09T17:01:34;19.70;99.90
52301;DHT22;38528;53.214;6.562;2022-09-09T17:04:05;19.60;99.90
52301;DHT22;38528;53.214;6.562;2022-09-09T17:06:32;19.60;99.90
52301;DHT22;38528;53.214;6.562;2022-09-09T17:09:02;19.60;99.90
52301;DHT22;38528;53.214;6.562;2022-09-09T17:11:29;19.50;99.90
52301;DHT22;38528;53.214;6.562;2022-09-09T17:13:55;19.50;99.90
52301;DHT22;38528;53.214;6.562;2022-09-09T17:16:24;19.50;99.90
52301;DHT22;38528;53.214;6.562;2022-09-09T17:18:51;19.50;99.90
52301;DHT22;38528;53.214;6.562;2022-09-09T17:21:19;19.30;99.90
52301;DHT22;38528;53.214;6.562;2022-09-09T17:23:45;19.30;99.90
52301;DHT22;38528;53.214;6.562;2022-09-09T17:26:15;19.20;99.90
52301;DHT22;38528;53.214;6.562;2022-09-09T17:28:42;19.10;99.90
52301;DHT22;38528;53.214;6.562;2022-09-09T17:31:09;19.60;99.90
52301;DHT22;38528;53.214;6.562;2022-09-09T17:33:37;18.90;99.90
52301;DHT22;38528;53.214;6.562;2022-09-09T17:36:18;18.80;99.90
52301;DHT22;38528;53.214;6.562;2022-09-09T17:38:44;18.70;99.90
52301;DHT22;38528;53.214;6.562;2022-09-09T17:41:25;18.70;99.90
52301;DHT22;38528;53.214;6.562;2022-09-09T17:43:51;18.90;99.90
52301;DHT22;38528;53.214;6.562;2022-09-09T17:46:22;19.20;99.90
52301;DHT22;38528;53.214;6.562;2022-09-09T17:48:50;18.60;99.90